createdAt,value
2022-12-31T00:02:17.794Z,63.02
2022-12-31T00:04:48.840Z,62.74
2022-12-31T00:07:22.247Z,62.76
2022-12-31T00:09:51.377Z,62.76
2022-12-31T00:12:25.684Z,62.70
2022-12-31T00:14:56.497Z,62.78
2022-12-31T00:17:29.774Z,62.66
2022-12-31T00:20:03.817Z,62.65
2022-12-31T00:22:46.291Z,62.85
2022-12-31T00:25:21.185Z,62.78
2022-12-31T00:27:57.593Z,62.90
2022-12-31T00:30:31.634Z,62.82
2022-12-31T00:33:06.797Z,62.95
2022-12-31T00:35:40.474Z,63.15
2022-12-31T00:38:25.530Z,63.28
2022-12-31T00:41:26.990Z,63.25
2022-12-31T00:44:02.750Z,63.40
2022-12-31T00:49:10.327Z,63.56
2022-12-31T00:51:50.871Z,63.53
2022-12-31T00:54:45.717Z,63.42
2022-12-31T00:57:22.612Z,63.62
2022-12-31T00:59:54.578Z,63.72
2022-12-31T01:02:38.251Z,64.04
2022-12-31T01:05:08.529Z,63.84
2022-12-31T01:07:39.688Z,64.15
2022-12-31T01:10:37.906Z,64.05
2022-12-31T01:13:12.401Z,64.39
2022-12-31T01:15:46.406Z,64.41
2022-12-31T01:18:16.523Z,64.09
2022-12-31T01:20:45.671Z,64.32
2022-12-31T01:23:14.907Z,64.06
2022-12-31T01:26:00.969Z,64.22
2022-12-31T01:28:33.058Z,64.14
2022-12-31T01:31:06.428Z,64.29
2022-12-31T01:33:36.031Z,64.34
2022-12-31T01:36:14.149Z,64.57
2022-12-31T01:38:48.944Z,64.65
2022-12-31T01:41:24.609Z,65.23
2022-12-31T01:44:18.379Z,65.09
2022-12-31T01:46:55.375Z,65.05
2022-12-31T01:49:33.925Z,64.87
2022-12-31T01:52:13.325Z,64.77
2022-12-31T01:54:46.922Z,64.81
2022-12-31T01:57:20.443Z,64.81
2022-12-31T01:59:51.109Z,64.71
2022-12-31T02:02:23.894Z,64.99
2022-12-31T02:04:53.729Z,64.91
2022-12-31T02:07:27.122Z,65.19
2022-12-31T02:09:55.924Z,65.26
2022-12-31T02:12:27.070Z,65.43
2022-12-31T02:15:10.199Z,65.48
2022-12-31T05:14:20.114Z,64.85
2022-12-31T05:16:51.111Z,64.51
2022-12-31T05:19:28.668Z,64.31
2022-12-31T05:22:22.738Z,64.42
2022-12-31T05:24:55.150Z,64.37
2022-12-31T05:27:23.904Z,64.40
2022-12-31T05:29:54.099Z,64.14
2022-12-31T05:32:23.471Z,64.14
2022-12-31T05:34:53.839Z,64.60
2022-12-31T05:37:22.901Z,64.24
2022-12-31T05:39:53.632Z,64.45
2022-12-31T05:42:22.386Z,64.48
2022-12-31T05:47:44.953Z,64.30
2022-12-31T05:50:25.615Z,64.08
2022-12-31T05:53:00.301Z,64.04
2022-12-31T05:55:30.478Z,64.16
2022-12-31T05:58:05.706Z,64.23
2022-12-31T06:00:39.463Z,64.17
2022-12-31T06:03:14.783Z,63.98
2022-12-31T06:06:05.353Z,64.18
2022-12-31T06:08:43.054Z,64.44
2022-12-31T06:11:21.755Z,64.45
2022-12-31T06:14:02.922Z,64.28
2022-12-31T06:16:36.380Z,64.44
2022-12-31T06:19:06.456Z,64.49
2022-12-31T06:21:42.566Z,64.62
2022-12-31T06:24:23.170Z,64.86
2022-12-31T06:27:00.149Z,65.05
2022-12-31T06:29:31.587Z,64.80
2022-12-31T06:32:02.050Z,64.88
2022-12-31T06:34:33.160Z,65.08
2022-12-31T06:37:07.680Z,64.56
2022-12-31T06:39:46.293Z,64.19
2022-12-31T06:42:25.116Z,64.53
2022-12-31T06:44:56.466Z,64.59
2022-12-31T06:47:34.158Z,64.52
2022-12-31T06:50:08.621Z,64.48
2022-12-31T06:52:38.455Z,64.29
2022-12-31T06:55:14.047Z,64.03
2022-12-31T06:57:45.059Z,64.02
2022-12-31T07:00:21.828Z,63.77
2022-12-31T07:03:03.520Z,63.77
2022-12-31T07:05:43.566Z,63.58
2022-12-31T07:08:26.036Z,63.38
2022-12-31T07:11:00.815Z,63.33
2022-12-31T07:13:50.813Z,63.45
2022-12-31T07:16:27.211Z,63.58
2022-12-31T07:19:21.373Z,63.43
2022-12-31T07:21:50.283Z,63.25
2022-12-31T07:24:19.541Z,63.31
2022-12-31T07:27:01.379Z,63.54
2022-12-31T07:29:40.437Z,63.60
2022-12-31T07:32:16.447Z,63.70
2022-12-31T07:35:00.245Z,63.14
2022-12-31T07:37:37.704Z,63.00
2022-12-31T07:40:29.340Z,62.87
2022-12-31T07:43:17.308Z,62.66
2022-12-31T07:45:50.772Z,62.60
2022-12-31T07:48:35.144Z,62.59
2022-12-31T07:51:17.082Z,62.54
2022-12-31T07:53:50.369Z,62.21
2022-12-31T07:56:23.606Z,62.23
2022-12-31T07:59:06.235Z,62.28
2022-12-31T08:01:53.647Z,61.73
2022-12-31T08:04:32.809Z,61.98
2022-12-31T08:07:17.675Z,61.75
2022-12-31T08:10:18.097Z,61.82
2022-12-31T08:12:57.048Z,61.88
2022-12-31T08:15:35.263Z,61.72
2022-12-31T08:18:08.357Z,61.63
2022-12-31T08:20:41.177Z,61.41
2022-12-31T08:23:24.086Z,61.53
2022-12-31T08:26:10.336Z,61.40
2022-12-31T08:28:57.532Z,61.27
2022-12-31T08:31:37.182Z,61.54
2022-12-31T08:34:20.081Z,61.46
2022-12-31T08:37:04.786Z,61.19
2022-12-31T08:40:02.430Z,61.18
2022-12-31T08:42:41.785Z,61.09
2022-12-31T08:45:15.362Z,61.16
2022-12-31T08:47:56.432Z,61.06
2022-12-31T08:50:30.176Z,61.12
2022-12-31T08:53:02.827Z,61.46
2022-12-31T08:55:37.181Z,61.33
2022-12-31T08:58:22.284Z,61.33
2022-12-31T09:00:54.131Z,61.48
2022-12-31T09:03:36.303Z,61.39
2022-12-31T09:06:11.085Z,61.35
2022-12-31T09:09:04.965Z,61.31
2022-12-31T09:11:51.330Z,61.49
2022-12-31T09:14:27.289Z,61.54
2022-12-31T09:17:02.925Z,61.71
2022-12-31T09:19:36.314Z,61.66
2022-12-31T09:22:08.468Z,61.75
2022-12-31T09:25:00.742Z,61.87
2022-12-31T09:27:39.885Z,61.82
2022-12-31T09:30:16.021Z,61.83
2022-12-31T09:33:01.339Z,61.98
2022-12-31T09:35:56.829Z,62.08
2022-12-31T09:38:38.154Z,62.25
2022-12-31T09:41:23.566Z,61.87
2022-12-31T09:44:32.611Z,61.98
2022-12-31T09:48:00.807Z,61.89
2022-12-31T09:51:16.319Z,62.00
2022-12-31T09:54:59.806Z,61.72
2022-12-31T09:57:48.131Z,61.99
2022-12-31T10:00:36.386Z,62.05
2022-12-31T10:03:56.061Z,61.85
2022-12-31T10:06:50.894Z,62.04
2022-12-31T10:10:06.732Z,61.92
2022-12-31T10:13:26.268Z,61.91
2022-12-31T10:16:32.681Z,62.08
2022-12-31T10:20:12.819Z,62.13
2022-12-31T10:23:38.223Z,62.15
2022-12-31T10:26:42.091Z,62.19
2022-12-31T10:29:31.203Z,62.17
2022-12-31T10:32:43.319Z,62.00
2022-12-31T10:35:59.243Z,62.08
2022-12-31T10:39:16.441Z,61.97
2022-12-31T10:42:21.511Z,62.10
2022-12-31T10:45:37.425Z,62.12
2022-12-31T10:48:27.076Z,62.06
2022-12-31T10:51:52.786Z,62.19
2022-12-31T10:55:03.840Z,62.16
2022-12-31T10:58:25.955Z,62.03
2022-12-31T11:01:04.044Z,62.20
2022-12-31T11:04:14.698Z,62.04
2022-12-31T11:07:11.402Z,61.97
2022-12-31T11:10:24.551Z,62.09
2022-12-31T11:13:14.332Z,62.20
2022-12-31T11:16:08.731Z,62.04
2022-12-31T11:18:51.357Z,61.94
2022-12-31T11:22:06.912Z,62.16
2022-12-31T11:27:49.339Z,61.94
2022-12-31T11:30:43.486Z,62.19
2022-12-31T11:33:28.757Z,62.16
2022-12-31T11:36:20.267Z,62.21
2022-12-31T11:39:10.616Z,62.37
2022-12-31T11:41:44.147Z,62.80
2022-12-31T11:44:16.601Z,63.12
2022-12-31T11:46:54.128Z,63.31
2022-12-31T11:49:53.770Z,63.65
2022-12-31T11:52:32.204Z,64.06
2022-12-31T11:55:08.639Z,64.18
2022-12-31T11:57:39.808Z,64.33
2022-12-31T12:00:15.150Z,64.43
2022-12-31T12:02:52.285Z,64.61
2022-12-31T12:05:21.574Z,64.82
2022-12-31T12:10:36.864Z,64.84
2022-12-31T12:13:31.497Z,64.97
2022-12-31T12:16:03.096Z,64.99
2022-12-31T12:18:51.635Z,64.97
2022-12-31T12:21:25.925Z,65.02
2022-12-31T12:23:57.486Z,65.11
2022-12-31T12:26:32.155Z,65.46
2022-12-31T12:29:05.252Z,65.51
2022-12-31T12:31:38.278Z,65.74
2022-12-31T12:34:08.446Z,65.83
2022-12-31T12:36:37.514Z,65.86
2022-12-31T12:39:08.049Z,65.76
2022-12-31T12:41:38.729Z,66.04
2022-12-31T12:44:09.453Z,66.11
2022-12-31T12:46:48.241Z,66.12
2022-12-31T12:49:29.724Z,66.12
2022-12-31T12:52:12.127Z,66.20
2022-12-31T12:54:52.635Z,66.35
2022-12-31T12:57:22.925Z,66.27
2022-12-31T13:00:16.161Z,66.34
2022-12-31T13:03:13.838Z,66.30
2022-12-31T13:05:50.657Z,66.50
2022-12-31T13:08:29.758Z,66.45
2022-12-31T13:11:05.255Z,66.55
2022-12-31T13:13:39.050Z,66.69
2022-12-31T13:16:10.737Z,66.64
2022-12-31T13:18:47.676Z,66.65
2022-12-31T13:21:30.566Z,66.64
2022-12-31T13:24:01.772Z,66.64
2022-12-31T13:26:33.364Z,66.46
2022-12-31T13:29:01.953Z,66.38
2022-12-31T13:31:40.722Z,66.56
2022-12-31T13:34:13.859Z,66.55
2022-12-31T13:36:44.566Z,66.46
2022-12-31T13:39:15.929Z,66.39
2022-12-31T13:41:47.892Z,66.44
2022-12-31T13:44:18.358Z,66.38
2022-12-31T13:46:53.417Z,66.61
2022-12-31T13:49:24.719Z,66.51
2022-12-31T13:51:56.410Z,66.25
2022-12-31T13:54:39.497Z,66.27
2022-12-31T13:57:16.073Z,66.12
2022-12-31T13:59:47.615Z,66.28
2022-12-31T14:02:27.471Z,66.36
2022-12-31T14:04:58.675Z,66.49
2022-12-31T14:07:37.595Z,66.67
2022-12-31T14:10:19.373Z,66.79
2022-12-31T14:12:59.413Z,66.76
2022-12-31T14:15:33.346Z,66.82
2022-12-31T14:18:12.118Z,67.06
2022-12-31T14:20:47.455Z,67.07
2022-12-31T14:23:26.186Z,67.09
2022-12-31T14:26:00.840Z,67.17
2022-12-31T14:29:00.021Z,67.46
2022-12-31T14:31:32.251Z,67.47
2022-12-31T14:34:02.789Z,67.39
2022-12-31T14:36:57.624Z,67.53
2022-12-31T14:39:48.827Z,67.53
2022-12-31T14:42:24.275Z,67.65
2022-12-31T14:45:01.072Z,67.71
2022-12-31T14:47:40.321Z,67.51
2022-12-31T14:50:19.574Z,67.61
2022-12-31T14:52:55.918Z,67.52
2022-12-31T14:55:31.061Z,67.72
2022-12-31T14:58:31.655Z,67.63
2022-12-31T15:01:22.753Z,67.67
2022-12-31T15:03:51.684Z,67.82
2022-12-31T15:06:56.198Z,67.93
2022-12-31T15:09:48.398Z,67.90
2022-12-31T15:12:46.909Z,68.03
2022-12-31T15:15:52.254Z,68.04
2022-12-31T15:18:38.755Z,68.11
2022-12-31T15:21:37.709Z,68.04
2022-12-31T15:24:14.741Z,68.18
2022-12-31T15:26:48.925Z,68.29
2022-12-31T15:29:26.545Z,68.21
2022-12-31T15:31:58.987Z,68.26
2022-12-31T15:34:29.639Z,68.36
2022-12-31T15:36:59.002Z,68.38
2022-12-31T15:39:38.148Z,68.52
2022-12-31T15:42:38.168Z,68.46
2022-12-31T15:45:12.877Z,68.32
2022-12-31T15:47:41.833Z,68.36
2022-12-31T15:50:15.703Z,68.46
2022-12-31T15:52:44.895Z,68.54
2022-12-31T15:55:21.706Z,68.57
2022-12-31T15:57:49.790Z,68.51
2022-12-31T16:00:20.607Z,68.42
2022-12-31T16:02:49.242Z,68.45
2022-12-31T16:05:21.629Z,68.47
2022-12-31T16:07:50.145Z,68.48
2022-12-31T16:10:24.738Z,68.08
2022-12-31T16:12:54.268Z,68.23
2022-12-31T16:15:25.300Z,68.24
2022-12-31T16:18:01.482Z,68.49
2022-12-31T16:20:31.483Z,68.34
2022-12-31T16:23:02.444Z,68.41
2022-12-31T16:25:33.036Z,68.63
2022-12-31T16:28:02.591Z,68.43
2022-12-31T16:30:33.157Z,68.46
2022-12-31T16:33:06.857Z,68.46
2022-12-31T16:35:38.151Z,68.35
2022-12-31T16:38:14.972Z,68.30
2022-12-31T16:40:43.827Z,68.38
2022-12-31T16:43:27.490Z,68.35
2022-12-31T16:45:59.310Z,68.25
2022-12-31T16:48:27.955Z,68.25
2022-12-31T16:50:56.540Z,68.27
2022-12-31T16:53:26.484Z,68.13
2022-12-31T16:55:58.249Z,68.06
2022-12-31T16:58:28.441Z,68.05
2022-12-31T17:01:01.708Z,68.05
2022-12-31T17:03:30.082Z,68.03
2022-12-31T17:06:04.246Z,67.89
2022-12-31T17:08:40.588Z,67.96
2022-12-31T17:11:23.435Z,67.88
2022-12-31T17:13:56.822Z,68.15
2022-12-31T17:16:26.754Z,67.94
2022-12-31T17:18:55.433Z,68.07
2022-12-31T17:21:24.847Z,67.97
2022-12-31T17:23:55.219Z,68.10
2022-12-31T17:26:29.498Z,68.00
2022-12-31T17:28:58.414Z,67.85
2022-12-31T17:31:32.408Z,68.03
2022-12-31T17:34:35.127Z,67.99
2022-12-31T17:37:05.613Z,67.80
2022-12-31T17:39:51.452Z,68.04
2022-12-31T17:42:30.576Z,67.91
2022-12-31T17:45:01.636Z,67.67
2022-12-31T17:47:38.525Z,67.26
2022-12-31T17:50:10.678Z,67.44
2022-12-31T17:52:39.571Z,67.42
2022-12-31T17:55:10.702Z,67.43
2022-12-31T17:57:40.264Z,67.39
2022-12-31T18:00:11.888Z,67.24
2022-12-31T18:02:45.262Z,67.19
2022-12-31T18:05:17.852Z,67.20
2022-12-31T18:07:46.191Z,67.08
2022-12-31T18:10:15.383Z,66.93
2022-12-31T18:12:50.721Z,66.95
2022-12-31T18:15:28.029Z,66.78
2022-12-31T18:18:00.779Z,66.55
2022-12-31T18:20:30.094Z,66.35
2022-12-31T18:23:01.616Z,66.36
2022-12-31T18:28:19.414Z,65.90
2022-12-31T18:30:57.467Z,65.79
2022-12-31T18:33:39.798Z,65.76
2022-12-31T18:36:21.385Z,65.67
2022-12-31T18:38:58.419Z,65.25
2022-12-31T18:41:34.143Z,65.08
2022-12-31T18:44:38.619Z,65.14
2022-12-31T18:47:19.188Z,65.06
2022-12-31T18:49:57.608Z,65.40
2022-12-31T18:52:36.951Z,65.13
2022-12-31T18:55:30.580Z,65.15
2022-12-31T18:58:22.814Z,65.03
2022-12-31T19:00:58.393Z,64.54
2022-12-31T19:03:56.533Z,64.50
2022-12-31T19:06:54.742Z,64.30
2022-12-31T19:09:47.261Z,64.28
2022-12-31T19:13:23.462Z,64.35
2022-12-31T19:16:12.147Z,64.07
2022-12-31T19:18:44.066Z,63.70
2022-12-31T19:21:49.176Z,63.69
2022-12-31T19:24:28.074Z,63.50
2022-12-31T19:27:13.051Z,63.53
2022-12-31T19:29:57.325Z,63.35
2022-12-31T19:32:49.984Z,63.16
2022-12-31T19:35:27.434Z,63.22
2022-12-31T19:38:04.812Z,62.85
2022-12-31T19:40:54.545Z,62.90
2022-12-31T19:43:54.993Z,62.80
2022-12-31T19:47:09.663Z,62.58
2022-12-31T19:50:19.467Z,62.59
2022-12-31T20:02:15.253Z,62.72
2022-12-31T20:04:51.843Z,62.56
2022-12-31T20:07:39.670Z,62.34
2022-12-31T20:11:31.282Z,62.27
2022-12-31T20:14:45.057Z,62.10
2022-12-31T20:39:20.409Z,61.49
2022-12-31T20:42:41.640Z,61.84
2022-12-31T20:46:02.786Z,61.86
2022-12-31T20:49:16.219Z,61.79
2022-12-31T20:52:25.548Z,61.80
2022-12-31T20:56:03.625Z,62.02
2022-12-31T20:58:44.156Z,62.05
2022-12-31T21:02:11.139Z,61.85
2022-12-31T21:05:12.925Z,62.30
2022-12-31T21:07:54.043Z,62.86
2022-12-31T21:10:26.798Z,63.81
2022-12-31T21:12:55.728Z,64.05
2022-12-31T21:15:26.078Z,64.49
2022-12-31T21:17:54.806Z,64.79
2022-12-31T21:20:23.318Z,64.65
2022-12-31T21:22:51.789Z,64.74
2022-12-31T21:25:20.936Z,64.73
2022-12-31T21:27:49.425Z,64.43
2022-12-31T21:30:19.386Z,64.81
2022-12-31T21:32:49.386Z,64.96
2022-12-31T21:38:06.701Z,65.40
2022-12-31T21:40:35.010Z,65.77
2022-12-31T21:43:03.307Z,65.92
2022-12-31T21:45:32.471Z,65.30
2022-12-31T21:48:20.013Z,65.42
2022-12-31T21:50:49.143Z,65.54
2022-12-31T21:53:23.502Z,65.80
2022-12-31T21:56:12.792Z,65.70
2022-12-31T21:58:41.877Z,65.75
2022-12-31T22:01:29.308Z,65.50
2022-12-31T22:03:59.349Z,64.93
2022-12-31T22:06:27.869Z,65.31
2022-12-31T22:08:56.653Z,65.17
2022-12-31T22:11:25.913Z,65.13
2022-12-31T22:13:57.408Z,64.78
2022-12-31T22:16:29.708Z,64.87
2022-12-31T22:19:05.890Z,65.01
2022-12-31T22:21:42.712Z,64.78
2022-12-31T22:24:15.355Z,64.56
2022-12-31T22:26:46.975Z,64.43
2022-12-31T22:29:20.238Z,64.28
2022-12-31T22:31:54.513Z,63.87
2022-12-31T22:34:27.949Z,64.00
2022-12-31T22:37:08.900Z,63.89
2022-12-31T22:40:13.069Z,64.05
2022-12-31T22:42:44.732Z,64.09
2022-12-31T22:45:21.109Z,63.83
2022-12-31T22:47:59.933Z,63.71
2022-12-31T22:50:50.312Z,63.82
2022-12-31T22:53:21.711Z,64.11
2022-12-31T22:55:52.496Z,63.85
2022-12-31T22:58:38.639Z,63.85
2022-12-31T23:01:19.660Z,63.80
2022-12-31T23:04:14.000Z,63.58
2022-12-31T23:11:13.356Z,63.57
2022-12-31T23:14:29.366Z,63.25
2022-12-31T23:17:55.794Z,63.30
2022-12-31T23:21:36.525Z,63.01
2022-12-31T23:24:26.409Z,62.94
2022-12-31T23:30:38.224Z,62.67
2022-12-31T23:33:37.485Z,62.36
2022-12-31T23:36:51.181Z,62.03
2022-12-31T23:39:55.259Z,61.71
2022-12-31T23:43:04.504Z,61.37
2022-12-31T23:46:11.065Z,61.10
2022-12-31T23:49:13.737Z,61.06
2022-12-31T23:52:06.847Z,60.78
2022-12-31T23:55:19.770Z,60.82
2022-12-31T23:58:20.398Z,60.76
